Terminal Aerodrome Forecast
Issued by NWS

Home | Current Version | Previous Version | Graphics & Text | Print | Product List | Glossary Off
Versions: 1 2 3 4 5 6 7 8 9 10 11 12 13 14

000
FTUS43 KABR 230520
TAFPIR
TAF
KPIR 230520Z 2306/2406 16010KT P6SM SCT060 BKN200
     FM231700 12010KT P6SM VCSH OVC020
     FM240000 12013KT 6SM BR VCSH OVC007=

USA.gov is the U.S. government's official web portal to all federal, state and local government web resources and services.